createdAt,value
2023-08-29T00:01:06.226Z,19.24
2023-08-29T00:02:42.510Z,19.26
2023-08-29T00:04:15.981Z,19.20
2023-08-29T00:05:48.192Z,19.18
2023-08-29T00:07:20.368Z,19.14
2023-08-29T00:08:52.517Z,19.06
2023-08-29T00:10:25.078Z,19.02
2023-08-29T00:11:57.651Z,19.03
2023-08-29T00:13:29.957Z,19.04
2023-08-29T00:15:02.690Z,19.06
2023-08-29T00:16:34.952Z,19.02
2023-08-29T00:18:07.413Z,19.03
2023-08-29T00:19:39.956Z,18.99
2023-08-29T00:21:12.083Z,18.95
2023-08-29T00:22:44.221Z,18.91
2023-08-29T00:24:16.351Z,18.86
2023-08-29T00:25:48.477Z,18.83
2023-08-29T00:35:58.629Z,18.79
2023-08-29T00:37:30.759Z,18.84
2023-08-29T00:39:03.415Z,18.83
2023-08-29T00:40:36.578Z,18.78
2023-08-29T00:42:08.712Z,18.75
2023-08-29T00:43:40.943Z,18.74
2023-08-29T00:45:13.060Z,18.75
2023-08-29T00:46:46.614Z,18.80
2023-08-29T00:48:18.835Z,18.78
2023-08-29T00:49:51.738Z,18.84
2023-08-29T00:51:23.951Z,18.83
2023-08-29T00:52:59.832Z,18.80
2023-08-29T00:54:31.997Z,18.67
2023-08-29T00:56:06.185Z,18.62
2023-08-29T00:57:38.445Z,18.58
2023-08-29T00:59:10.720Z,18.61
2023-08-29T01:00:43.387Z,18.62
2023-08-29T01:02:15.499Z,18.62
2023-08-29T01:03:47.853Z,18.63
2023-08-29T01:05:22.074Z,18.60
2023-08-29T01:06:56.786Z,18.57
2023-08-29T01:08:28.962Z,18.52
2023-08-29T01:10:01.152Z,18.43
2023-08-29T01:11:47.481Z,18.45
2023-08-29T01:13:28.297Z,18.35
2023-08-29T01:15:06.800Z,18.26
2023-08-29T01:16:43.123Z,18.26
2023-08-29T01:18:16.442Z,18.27
2023-08-29T01:19:52.473Z,18.37
2023-08-29T01:21:47.402Z,18.43
2023-08-29T01:23:26.702Z,18.52
2023-08-29T01:25:06.862Z,18.52
2023-08-29T01:26:39.304Z,18.53
2023-08-29T01:28:11.547Z,18.51
2023-08-29T01:29:44.658Z,18.47
2023-08-29T01:34:23.733Z,18.20
2023-08-29T01:35:55.896Z,18.14
2023-08-29T01:37:27.986Z,18.07
2023-08-29T01:39:00.132Z,18.08
2023-08-29T01:40:32.456Z,18.10
2023-08-29T01:42:04.753Z,18.10
2023-08-29T01:43:36.943Z,18.13
2023-08-29T01:45:09.474Z,18.07
2023-08-29T01:46:41.950Z,18.11
2023-08-29T01:48:15.595Z,18.14
2023-08-29T01:49:47.800Z,18.13
2023-08-29T01:51:20.031Z,18.19
2023-08-29T01:52:52.125Z,18.18
2023-08-29T01:54:24.297Z,18.18
2023-08-29T01:55:57.040Z,18.17
2023-08-29T01:57:30.082Z,18.13
2023-08-29T01:59:02.533Z,18.06
2023-08-29T02:00:35.342Z,18.09
2023-08-29T02:02:08.918Z,18.16
2023-08-29T02:03:41.013Z,18.13
2023-08-29T02:05:13.206Z,18.10
2023-08-29T02:06:45.456Z,18.08
2023-08-29T02:08:17.677Z,18.00
2023-08-29T02:09:49.840Z,18.05
2023-08-29T02:11:21.959Z,17.97
2023-08-29T02:12:54.406Z,17.93
2023-08-29T02:14:26.539Z,17.96
2023-08-29T02:15:58.909Z,17.98
2023-08-29T02:17:31.330Z,17.97
2023-08-29T05:32:29.557Z,21.32
2023-08-29T05:34:01.827Z,21.42
2023-08-29T05:37:07.775Z,21.57
2023-08-29T05:38:40.032Z,21.71
2023-08-29T05:40:12.520Z,21.83
2023-08-29T05:41:44.668Z,21.94
2023-08-29T05:43:16.909Z,22.03
2023-08-29T05:44:49.182Z,22.11
2023-08-29T05:46:22.202Z,22.21
2023-08-29T05:47:54.521Z,22.30
2023-08-29T05:49:26.817Z,22.40
2023-08-29T05:50:58.991Z,22.51
2023-08-29T05:52:31.374Z,22.63
2023-08-29T05:54:03.655Z,22.73
2023-08-29T05:55:35.870Z,22.79
2023-08-29T05:57:11.307Z,22.90
2023-08-29T05:58:52.528Z,23.01
2023-08-29T06:02:21.676Z,23.29
2023-08-29T06:07:48.477Z,23.74
2023-08-29T06:09:21.132Z,23.81
2023-08-29T06:11:02.282Z,23.97
2023-08-29T06:12:34.487Z,24.03
2023-08-29T06:14:07.256Z,24.13
2023-08-29T06:15:39.616Z,24.23
2023-08-29T06:17:11.845Z,24.32
2023-08-29T06:18:44.984Z,24.42
2023-08-29T06:20:18.106Z,24.52
2023-08-29T06:21:50.329Z,24.71
2023-08-29T06:23:22.686Z,24.74
2023-08-29T06:24:56.674Z,24.83
2023-08-29T06:26:28.875Z,24.92
2023-08-29T06:28:01.608Z,25.01
2023-08-29T06:29:33.838Z,25.10
2023-08-29T06:31:08.678Z,25.20
2023-08-29T06:32:41.875Z,25.29
2023-08-29T06:34:14.212Z,25.36
2023-08-29T06:35:47.060Z,25.49
2023-08-29T06:37:19.513Z,25.58
2023-08-29T06:38:51.819Z,25.68
2023-08-29T06:40:24.080Z,25.77
2023-08-29T06:41:57.095Z,25.86
2023-08-29T06:43:29.309Z,25.94
2023-08-29T06:45:01.569Z,26.04
2023-08-29T06:46:33.778Z,26.13
2023-08-29T06:48:06.576Z,26.23
2023-08-29T06:49:39.452Z,26.32
2023-08-29T06:51:11.827Z,26.42
2023-08-29T06:52:43.987Z,26.52
2023-08-29T06:54:16.245Z,26.62
2023-08-29T06:55:49.391Z,26.73
2023-08-29T06:57:21.353Z,26.90
2023-08-29T06:58:54.446Z,26.94
2023-08-29T07:00:26.978Z,27.10
2023-08-29T07:01:59.179Z,27.11
2023-08-29T07:03:31.645Z,27.20
2023-08-29T07:05:03.890Z,27.28
2023-08-29T07:06:36.235Z,27.38
2023-08-29T07:08:09.431Z,27.47
2023-08-29T07:09:45.036Z,27.56
2023-08-29T07:11:18.253Z,27.65
2023-08-29T07:12:50.405Z,27.80
2023-08-29T07:14:22.964Z,27.83
2023-08-29T07:15:55.504Z,27.92
2023-08-29T07:17:28.094Z,28.01
2023-08-29T07:19:00.417Z,28.11
2023-08-29T07:20:33.393Z,28.21
2023-08-29T07:22:17.478Z,28.26
2023-08-29T07:23:56.044Z,28.32
2023-08-29T07:25:40.416Z,28.42
2023-08-29T07:27:12.874Z,28.42
2023-08-29T07:28:45.147Z,28.48
2023-08-29T07:30:21.023Z,28.53
2023-08-29T07:31:53.445Z,28.60
2023-08-29T07:33:25.829Z,28.67
2023-08-29T07:34:58.598Z,28.74
2023-08-29T07:36:33.371Z,28.81
2023-08-29T07:38:06.033Z,28.90
2023-08-29T07:39:38.376Z,28.97
2023-08-29T07:41:10.565Z,29.03
2023-08-29T07:42:42.765Z,29.11
2023-08-29T07:44:15.128Z,29.16
2023-08-29T07:45:49.740Z,29.23
2023-08-29T07:47:22.041Z,29.30
2023-08-29T07:48:54.285Z,29.37
2023-08-29T07:50:27.030Z,29.40
2023-08-29T07:51:59.573Z,29.43
2023-08-29T07:53:31.777Z,29.48
2023-08-29T07:55:06.097Z,29.59
2023-08-29T07:56:38.505Z,29.64
2023-08-29T07:58:10.740Z,29.72
2023-08-29T07:59:43.427Z,29.79
2023-08-29T08:01:15.604Z,29.89
2023-08-29T08:02:47.917Z,29.93
2023-08-29T08:04:20.442Z,29.97
2023-08-29T08:05:52.871Z,30.04
2023-08-29T08:07:24.998Z,30.08
2023-08-29T08:09:00.560Z,30.16
2023-08-29T08:14:54.500Z,30.36
2023-08-29T08:16:26.774Z,30.37
2023-08-29T08:17:59.147Z,30.41
2023-08-29T08:19:31.608Z,30.46
2023-08-29T08:21:04.101Z,30.50
2023-08-29T08:22:37.474Z,30.54
2023-08-29T08:24:09.847Z,30.59
2023-08-29T08:25:42.064Z,30.63
2023-08-29T08:27:14.440Z,30.68
2023-08-29T08:28:46.706Z,30.71
2023-08-29T08:30:19.301Z,30.75
2023-08-29T08:31:51.548Z,30.77
2023-08-29T08:33:26.286Z,30.80
2023-08-29T08:40:42.440Z,30.94
2023-08-29T08:56:24.756Z,31.31
2023-08-29T08:57:57.684Z,31.37
2023-08-29T08:59:29.741Z,31.45
2023-08-29T09:01:02.336Z,31.39
2023-08-29T09:02:35.488Z,31.44
2023-08-29T09:04:10.429Z,31.47
2023-08-29T09:05:44.361Z,31.55
2023-08-29T09:07:17.484Z,31.63
2023-08-29T09:08:50.519Z,31.80
2023-08-29T09:10:24.950Z,31.89
2023-08-29T09:11:59.295Z,31.99
2023-08-29T09:13:32.036Z,32.08
2023-08-29T09:15:07.713Z,32.16
2023-08-29T09:16:40.994Z,32.22
2023-08-29T09:18:16.150Z,32.27
2023-08-29T09:19:48.964Z,32.32
2023-08-29T09:21:23.296Z,32.41
2023-08-29T09:22:58.352Z,32.48
2023-08-29T09:24:30.856Z,32.51
2023-08-29T09:26:03.088Z,32.55
2023-08-29T09:27:42.173Z,32.69
2023-08-29T09:29:28.463Z,32.72
2023-08-29T09:31:08.510Z,32.81
2023-08-29T09:32:54.484Z,32.85
2023-08-29T09:34:36.630Z,32.91
2023-08-29T09:36:09.922Z,32.92
2023-08-29T09:37:46.691Z,33.01
2023-08-29T09:39:19.177Z,33.04
2023-08-29T09:40:53.371Z,33.07
2023-08-29T09:42:25.541Z,33.10
2023-08-29T09:43:59.025Z,33.13
2023-08-29T09:45:32.954Z,33.20
2023-08-29T09:47:07.304Z,33.25
2023-08-29T09:48:56.536Z,33.32
2023-08-29T09:50:30.307Z,33.31
2023-08-29T09:52:04.352Z,33.38
2023-08-29T09:53:36.789Z,33.40
2023-08-29T09:57:40.306Z,33.51
2023-08-29T09:59:16.953Z,33.45
2023-08-29T10:00:49.599Z,33.44
2023-08-29T10:02:23.882Z,33.52
2023-08-29T10:03:58.735Z,33.54
2023-08-29T10:05:36.460Z,33.58
2023-08-29T10:07:10.277Z,33.61
2023-08-29T10:08:52.058Z,33.71
2023-08-29T10:10:25.893Z,33.75
2023-08-29T10:11:59.834Z,33.83
2023-08-29T10:13:32.161Z,33.89
2023-08-29T10:15:05.708Z,33.91
2023-08-29T10:16:39.260Z,33.99
2023-08-29T10:18:14.330Z,34.05
2023-08-29T10:19:46.721Z,34.06
2023-08-29T10:21:23.110Z,34.13
2023-08-29T10:22:56.117Z,34.18
2023-08-29T10:24:28.648Z,34.21
2023-08-29T10:26:02.664Z,34.26
2023-08-29T10:27:35.974Z,34.31
2023-08-29T10:29:08.634Z,34.34
2023-08-29T10:30:45.148Z,34.41
2023-08-29T10:32:17.762Z,34.42
2023-08-29T10:33:50.157Z,34.48
2023-08-29T10:35:25.661Z,34.52
2023-08-29T10:36:58.645Z,34.50
2023-08-29T10:38:31.977Z,34.45
2023-08-29T10:40:15.604Z,34.43
2023-08-29T10:41:48.576Z,34.38
2023-08-29T10:43:25.936Z,34.34
2023-08-29T10:44:58.320Z,34.23
2023-08-29T10:46:31.596Z,34.15
2023-08-29T10:48:04.924Z,34.08
2023-08-29T10:49:46.729Z,34.04
2023-08-29T10:51:26.741Z,33.96
2023-08-29T10:53:00.237Z,33.84
2023-08-29T10:54:32.411Z,33.75
2023-08-29T10:56:07.096Z,33.71
2023-08-29T10:57:39.362Z,33.61
2023-08-29T10:59:36.189Z,33.58
2023-08-29T11:01:11.119Z,33.47
2023-08-29T11:21:10.659Z,32.10
2023-08-29T11:22:49.584Z,31.69
2023-08-29T11:24:23.475Z,31.36
2023-08-29T11:25:56.042Z,30.89
2023-08-29T12:01:41.619Z,27.45
2023-08-29T12:06:32.577Z,27.68
2023-08-29T12:32:04.857Z,28.25
2023-08-29T12:33:37.449Z,28.15
2023-08-29T12:35:10.146Z,28.17
2023-08-29T12:36:42.375Z,28.14
2023-08-29T12:38:15.202Z,28.12
2023-08-29T12:39:47.457Z,28.12
2023-08-29T12:41:19.892Z,28.11
2023-08-29T12:42:53.498Z,28.14
2023-08-29T12:44:25.627Z,28.15
2023-08-29T12:46:00.263Z,28.17
2023-08-29T12:47:32.842Z,28.20
2023-08-29T12:49:05.231Z,28.22
2023-08-29T12:53:50.935Z,28.32
2023-08-29T12:55:23.163Z,28.37
2023-08-29T12:58:30.692Z,28.33
2023-08-29T13:00:03.289Z,28.33
2023-08-29T13:01:35.468Z,28.26
2023-08-29T13:03:08.083Z,28.21
2023-08-29T13:04:40.659Z,28.19
2023-08-29T13:06:12.787Z,28.14
2023-08-29T13:07:47.329Z,28.11
2023-08-29T13:09:34.650Z,28.08
2023-08-29T13:11:08.849Z,28.02
2023-08-29T13:12:41.616Z,27.95
2023-08-29T13:17:31.348Z,27.85
2023-08-29T13:19:04.277Z,27.83
2023-08-29T13:22:08.175Z,27.59
2023-08-29T13:23:40.448Z,27.14
2023-08-29T13:25:12.681Z,26.72
2023-08-29T13:26:44.768Z,26.53
2023-08-29T13:28:16.879Z,26.25
2023-08-29T13:29:49.022Z,26.04
2023-08-29T13:31:24.457Z,25.84
2023-08-29T13:32:56.905Z,25.69
2023-08-29T13:34:29.439Z,25.53
2023-08-29T13:36:01.589Z,25.37
2023-08-29T13:37:36.639Z,25.24
2023-08-29T13:39:08.801Z,25.21
2023-08-29T13:40:44.013Z,25.22
2023-08-29T13:42:18.909Z,25.23
2023-08-29T13:43:51.372Z,25.29
2023-08-29T13:45:23.587Z,25.32
2023-08-29T13:46:55.712Z,25.36
2023-08-29T13:48:27.883Z,25.38
2023-08-29T13:50:00.229Z,25.41
2023-08-29T13:51:32.343Z,25.45
2023-08-29T13:53:04.808Z,25.50
2023-08-29T13:54:37.789Z,25.50
2023-08-29T13:56:10.059Z,25.55
2023-08-29T13:57:42.158Z,25.55
2023-08-29T13:59:14.334Z,25.56
2023-08-29T14:00:46.690Z,25.53
2023-08-29T14:02:19.112Z,25.52
2023-08-29T14:03:51.285Z,25.53
2023-08-29T14:05:23.672Z,25.52
2023-08-29T14:06:56.243Z,25.58
2023-08-29T14:08:28.440Z,25.60
2023-08-29T14:10:00.572Z,25.61
2023-08-29T14:11:32.816Z,25.65
2023-08-29T14:13:05.308Z,25.69
2023-08-29T14:14:37.541Z,25.71
2023-08-29T14:16:10.479Z,25.72
2023-08-29T14:17:43.876Z,25.80
2023-08-29T14:21:01.536Z,25.85
2023-08-29T14:22:33.920Z,25.85
2023-08-29T14:24:06.282Z,25.91
2023-08-29T14:29:00.545Z,26.01
2023-08-29T14:30:32.801Z,26.13
2023-08-29T14:32:06.933Z,26.16
2023-08-29T14:33:39.311Z,26.23
2023-08-29T14:35:11.514Z,26.31
2023-08-29T14:36:43.591Z,26.37
2023-08-29T14:38:15.696Z,26.44
2023-08-29T14:39:48.347Z,26.50
2023-08-29T14:41:20.720Z,26.55
2023-08-29T14:42:52.880Z,26.61
2023-08-29T14:44:25.004Z,26.65
2023-08-29T14:45:58.745Z,26.69
2023-08-29T14:47:30.933Z,26.74
2023-08-29T14:49:04.399Z,26.79
2023-08-29T14:50:36.749Z,26.84
2023-08-29T14:52:08.867Z,26.92
2023-08-29T14:53:41.544Z,26.96
2023-08-29T14:55:13.841Z,26.97
2023-08-29T14:56:46.013Z,27.05
2023-08-29T14:58:18.165Z,27.04
2023-08-29T14:59:50.551Z,27.08
2023-08-29T15:01:23.688Z,27.07
2023-08-29T15:02:55.832Z,27.15
2023-08-29T15:06:02.836Z,27.12
2023-08-29T15:07:34.964Z,27.09
2023-08-29T15:09:09.006Z,27.11
2023-08-29T15:10:41.402Z,27.10
2023-08-29T15:12:13.597Z,27.08
2023-08-29T15:13:48.674Z,27.04
2023-08-29T15:15:20.954Z,27.01
2023-08-29T15:16:53.254Z,26.99
2023-08-29T15:18:25.368Z,27.01
2023-08-29T15:19:58.352Z,27.01
2023-08-29T15:35:24.343Z,26.58
2023-08-29T15:36:57.245Z,26.56
2023-08-29T15:38:30.578Z,26.56
2023-08-29T15:40:02.800Z,26.52
2023-08-29T15:41:34.965Z,26.47
2023-08-29T15:43:07.095Z,26.49
2023-08-29T15:44:39.271Z,26.53
2023-08-29T15:46:11.486Z,26.52
2023-08-29T15:47:44.460Z,26.49
2023-08-29T15:50:49.631Z,26.40
2023-08-29T15:52:21.774Z,26.37
2023-08-29T15:53:53.948Z,26.33
2023-08-29T15:55:26.074Z,26.32
2023-08-29T15:56:58.503Z,26.29
2023-08-29T15:58:30.879Z,26.27
2023-08-29T16:00:10.978Z,26.24
2023-08-29T16:01:43.187Z,26.15
2023-08-29T16:03:15.491Z,26.17
2023-08-29T16:04:47.844Z,26.18
2023-08-29T16:06:20.863Z,26.17
2023-08-29T16:07:53.751Z,26.18
2023-08-29T16:09:26.584Z,26.18
2023-08-29T16:10:58.964Z,26.17
2023-08-29T16:12:33.012Z,26.20
2023-08-29T16:14:05.192Z,26.16
2023-08-29T16:15:37.983Z,26.12
2023-08-29T16:17:10.236Z,26.05
2023-08-29T16:18:42.430Z,26.01
2023-08-29T16:20:15.101Z,25.94
2023-08-29T16:21:48.503Z,25.91
2023-08-29T16:23:20.879Z,25.80
2023-08-29T16:24:57.417Z,25.71
2023-08-29T16:26:30.740Z,25.65
2023-08-29T16:28:03.482Z,25.64
2023-08-29T16:29:38.602Z,25.69
2023-08-29T16:31:11.228Z,25.65
2023-08-29T16:32:43.739Z,25.62
2023-08-29T16:35:57.009Z,25.57
2023-08-29T16:37:29.209Z,25.56
2023-08-29T16:39:01.785Z,25.53
2023-08-29T16:40:35.805Z,25.54
2023-08-29T16:42:08.408Z,25.55
2023-08-29T16:43:42.629Z,25.58
2023-08-29T16:45:14.924Z,25.54
2023-08-29T16:46:47.340Z,25.54
2023-08-29T16:48:22.356Z,25.52
2023-08-29T16:49:54.693Z,25.51
2023-08-29T16:51:27.356Z,25.48
2023-08-29T16:52:59.564Z,25.41
2023-08-29T16:54:31.721Z,25.30
2023-08-29T16:56:08.900Z,25.27
2023-08-29T16:57:41.604Z,25.18
2023-08-29T16:59:13.781Z,25.16
2023-08-29T17:00:47.325Z,25.15
2023-08-29T17:02:19.730Z,25.13
2023-08-29T17:03:52.172Z,25.09
2023-08-29T17:05:24.696Z,25.05
2023-08-29T17:06:56.938Z,25.04
2023-08-29T17:08:29.315Z,25.04
2023-08-29T17:10:01.944Z,25.01
2023-08-29T17:11:34.115Z,24.98
2023-08-29T17:13:06.415Z,24.94
2023-08-29T17:14:39.798Z,24.94
2023-08-29T17:16:12.450Z,24.93
2023-08-29T17:17:45.048Z,24.91
2023-08-29T17:19:17.834Z,24.86
2023-08-29T17:20:50.144Z,24.83
2023-08-29T17:22:22.425Z,24.80
2023-08-29T17:23:54.634Z,24.77
2023-08-29T17:25:26.766Z,24.78
2023-08-29T17:26:59.083Z,24.75
2023-08-29T17:28:31.392Z,24.72
2023-08-29T17:30:06.842Z,24.65
2023-08-29T17:31:39.430Z,24.56
2023-08-29T17:33:11.656Z,24.53
2023-08-29T17:43:04.332Z,24.48
2023-08-29T17:44:37.387Z,24.36
2023-08-29T17:47:58.554Z,24.31
2023-08-29T17:49:30.703Z,24.33
2023-08-29T17:51:04.063Z,24.29
2023-08-29T17:52:36.360Z,24.27
2023-08-29T17:54:08.584Z,24.27
2023-08-29T17:55:40.705Z,24.24
2023-08-29T17:57:12.839Z,24.21
2023-08-29T17:58:49.896Z,24.25
2023-08-29T18:00:22.556Z,24.25
2023-08-29T18:01:54.816Z,24.24
2023-08-29T18:03:27.124Z,24.23
2023-08-29T18:04:59.915Z,24.23
2023-08-29T18:06:32.068Z,24.24
2023-08-29T18:08:05.428Z,24.21
2023-08-29T18:09:38.275Z,24.24
2023-08-29T18:11:10.922Z,24.25
2023-08-29T18:12:46.217Z,24.19
2023-08-29T18:14:33.183Z,24.17
2023-08-29T18:16:12.033Z,24.26
2023-08-29T18:17:47.483Z,24.23
2023-08-29T18:22:42.599Z,24.09
2023-08-29T18:25:55.684Z,24.10
2023-08-29T18:27:27.864Z,24.04
2023-08-29T18:30:43.354Z,23.90
2023-08-29T18:32:15.897Z,23.92
2023-08-29T18:35:20.838Z,23.96
2023-08-29T18:36:52.950Z,23.98
2023-08-29T18:38:25.408Z,24.02
2023-08-29T18:39:58.338Z,24.00
2023-08-29T18:41:30.584Z,23.94
2023-08-29T18:43:06.297Z,23.93
2023-08-29T18:44:38.466Z,23.87
2023-08-29T18:46:12.114Z,23.80
2023-08-29T18:47:44.488Z,23.77
2023-08-29T18:49:16.645Z,23.74
2023-08-29T18:51:06.996Z,23.76
2023-08-29T18:52:39.225Z,23.68
2023-08-29T19:04:16.020Z,23.66
2023-08-29T19:05:48.226Z,23.66
2023-08-29T19:07:20.565Z,23.63
2023-08-29T19:08:53.108Z,23.64
2023-08-29T19:10:25.517Z,23.69
2023-08-29T19:11:58.946Z,23.70
2023-08-29T19:13:31.205Z,23.80
2023-08-29T19:15:07.250Z,23.72
2023-08-29T19:16:39.555Z,23.69
2023-08-29T19:18:15.088Z,23.69
2023-08-29T19:19:47.448Z,23.66
2023-08-29T19:21:19.585Z,23.64
2023-08-29T19:22:51.679Z,23.60
2023-08-29T19:24:23.792Z,23.58
2023-08-29T19:25:59.353Z,23.57
2023-08-29T19:27:32.681Z,23.58
2023-08-29T19:29:04.851Z,23.56
2023-08-29T19:30:36.986Z,23.56
2023-08-29T19:32:09.131Z,23.54
2023-08-29T19:33:41.408Z,23.55
2023-08-29T19:35:15.470Z,23.57
2023-08-29T19:42:38.648Z,23.59
2023-08-29T19:44:11.385Z,23.61
2023-08-29T19:45:43.939Z,23.61
2023-08-29T19:48:52.745Z,23.62
2023-08-29T19:50:24.949Z,23.61
2023-08-29T19:51:57.314Z,23.58
2023-08-29T19:53:29.467Z,23.60
2023-08-29T19:55:02.176Z,23.63
2023-08-29T19:56:34.327Z,23.62
2023-08-29T19:58:06.702Z,23.63
2023-08-29T19:59:39.635Z,23.65
2023-08-29T20:01:11.882Z,23.68
2023-08-29T20:02:47.918Z,23.68
2023-08-29T20:04:20.157Z,23.67
2023-08-29T20:05:53.962Z,23.65
2023-08-29T20:07:26.128Z,23.57
2023-08-29T20:08:58.423Z,23.53
2023-08-29T20:10:30.849Z,23.49
2023-08-29T20:12:03.230Z,23.47
2023-08-29T20:13:35.433Z,23.47
2023-08-29T20:15:08.236Z,23.47
2023-08-29T20:16:40.628Z,23.42
2023-08-29T20:18:13.891Z,23.39
2023-08-29T20:19:46.063Z,23.39
2023-08-29T20:21:18.312Z,23.32
2023-08-29T20:22:50.480Z,23.38
2023-08-29T20:24:22.659Z,23.39
2023-08-29T20:25:55.843Z,23.40
2023-08-29T20:27:27.878Z,23.41
2023-08-29T20:29:03.065Z,23.30
2023-08-29T20:30:39.331Z,23.30
2023-08-29T20:32:11.811Z,23.24
2023-08-29T20:33:43.901Z,23.19
2023-08-29T20:35:16.252Z,23.20
2023-08-29T20:36:50.060Z,23.27
2023-08-29T20:38:22.822Z,23.33
2023-08-29T20:39:55.227Z,23.37
2023-08-29T20:41:27.417Z,23.37
2023-08-29T20:43:00.082Z,23.33
2023-08-29T20:44:32.699Z,23.29
2023-08-29T20:46:04.767Z,23.27
2023-08-29T20:47:37.893Z,23.26
2023-08-29T20:49:10.057Z,23.19
2023-08-29T20:50:48.258Z,23.20
2023-08-29T20:52:21.713Z,23.12
2023-08-29T20:53:53.769Z,23.14
2023-08-29T20:55:26.076Z,23.16
2023-08-29T20:56:58.192Z,23.17
2023-08-29T20:58:30.550Z,23.16
2023-08-29T21:00:02.773Z,23.10
2023-08-29T21:01:35.406Z,22.94
2023-08-29T21:03:08.264Z,22.99
2023-08-29T21:11:21.389Z,22.85
2023-08-29T21:14:26.399Z,22.79
2023-08-29T21:20:06.854Z,22.68
2023-08-29T21:21:39.106Z,22.64
2023-08-29T21:34:19.608Z,22.50
2023-08-29T21:35:53.095Z,22.51
2023-08-29T21:37:25.284Z,22.49
2023-08-29T21:38:57.609Z,22.47
2023-08-29T21:40:29.970Z,22.48
2023-08-29T21:42:02.006Z,22.48
2023-08-29T21:43:34.284Z,22.47
2023-08-29T21:45:09.118Z,22.49
2023-08-29T21:46:41.325Z,22.50
2023-08-29T21:48:13.571Z,22.48
2023-08-29T21:49:45.823Z,22.45
2023-08-29T21:54:30.849Z,22.40
2023-08-29T21:56:09.517Z,22.47
2023-08-29T21:57:41.682Z,22.44
2023-08-29T21:59:14.576Z,22.42
2023-08-29T22:00:54.122Z,22.43
2023-08-29T22:02:26.384Z,22.35
2023-08-29T22:05:34.844Z,22.34
2023-08-29T22:35:24.841Z,21.91
2023-08-29T22:36:56.972Z,21.88
2023-08-29T22:38:29.395Z,21.89
2023-08-29T22:40:02.497Z,21.90
2023-08-29T22:41:35.058Z,21.91
2023-08-29T22:43:07.326Z,21.93
2023-08-29T22:44:42.566Z,21.95
2023-08-29T22:46:14.851Z,21.89
2023-08-29T22:47:47.066Z,21.83
2023-08-29T22:49:20.074Z,21.85
2023-08-29T22:50:52.191Z,21.79
2023-08-29T22:52:24.898Z,21.78
2023-08-29T22:53:58.750Z,21.70
2023-08-29T22:55:31.294Z,21.67
2023-08-29T22:57:03.913Z,21.65
2023-08-29T22:58:35.998Z,21.67
2023-08-29T23:00:11.369Z,21.63
2023-08-29T23:01:43.518Z,21.63
2023-08-29T23:03:16.006Z,21.63
2023-08-29T23:04:48.323Z,21.64
2023-08-29T23:06:22.045Z,21.63
2023-08-29T23:07:54.141Z,21.58
2023-08-29T23:09:27.804Z,21.51
2023-08-29T23:11:00.042Z,21.56
2023-08-29T23:12:32.109Z,21.56
2023-08-29T23:14:04.582Z,21.52
2023-08-29T23:15:36.754Z,21.54
2023-08-29T23:17:11.907Z,21.53
2023-08-29T23:34:12.004Z,21.21
2023-08-29T23:35:47.602Z,21.22
2023-08-29T23:37:19.719Z,21.21
2023-08-29T23:38:55.287Z,21.20
2023-08-29T23:40:27.917Z,21.14
2023-08-29T23:42:01.302Z,21.11
2023-08-29T23:43:33.512Z,21.10
2023-08-29T23:45:07.324Z,21.10
2023-08-29T23:46:39.516Z,21.06
2023-08-29T23:48:11.923Z,21.02
2023-08-29T23:49:44.460Z,21.07
2023-08-29T23:51:16.850Z,21.07
2023-08-29T23:52:48.943Z,21.10
2023-08-29T23:54:21.100Z,21.12
2023-08-29T23:55:53.209Z,21.10
2023-08-29T23:57:25.290Z,21.08
2023-08-29T23:58:57.430Z,21.01
